TimePDT,TemperatureF,Dew PointF,Humidity,Sea Level PressureIn,VisibilityMPH,Wind Direction,Wind SpeedMPH,Gust SpeedMPH,PrecipitationIn,Events,Conditions,WindDirDegrees,DateUTC
12:55 AM,62.1,57.0,84,29.93,10.0,East,3.5,-,N/A,,Clear,80,2013-08-21 07:55:00
1:55 AM,59.0,54.0,83,29.92,10.0,WNW,4.6,-,N/A,,Clear,300,2013-08-21 08:55:00
2:55 AM,60.1,55.0,83,29.92,10.0,Calm,Calm,-,N/A,,Clear,0,2013-08-21 09:55:00
3:55 AM,59.0,54.0,83,29.91,10.0,Calm,Calm,-,N/A,,Clear,0,2013-08-21 10:55:00
4:55 AM,59.0,54.0,83,29.91,10.0,Calm,Calm,-,N/A,,Clear,0,2013-08-21 11:55:00
5:55 AM,57.9,53.1,84,29.92,10.0,ENE,3.5,-,N/A,,Clear,60,2013-08-21 12:55:00
6:50 AM,59.0,53.6,82,29.91,9.0,Calm,Calm,-,N/A,,Scattered Clouds,0,2013-08-21 13:50:00
6:55 AM,60.1,55.0,83,29.94,9.0,Calm,Calm,-,N/A,,Mostly Cloudy,0,2013-08-21 13:55:00
7:55 AM,62.1,57.0,84,29.95,9.0,West,5.8,-,N/A,,Overcast,280,2013-08-21 14:55:00
8:55 AM,64.0,57.9,80,29.95,8.0,SW,5.8,-,N/A,,Mostly Cloudy,230,2013-08-21 15:55:00
9:20 AM,64.4,57.2,77,29.93,9.0,SW,3.5,-,N/A,,Scattered Clouds,230,2013-08-21 16:20:00
9:55 AM,68.0,59.0,73,29.96,10.0,West,5.8,-,N/A,,Clear,270,2013-08-21 16:55:00
10:55 AM,71.1,57.9,63,29.95,10.0,WSW,8.1,-,N/A,,Clear,240,2013-08-21 17:55:00
11:55 AM,71.1,57.9,63,29.95,10.0,SW,9.2,-,N/A,,Clear,230,2013-08-21 18:55:00
12:55 PM,72.0,57.0,59,29.95,10.0,West,10.4,-,N/A,,Clear,260,2013-08-21 19:55:00
1:55 PM,73.9,57.0,55,29.94,10.0,WSW,8.1,-,N/A,,Clear,250,2013-08-21 20:55:00
2:55 PM,73.0,57.9,59,29.92,10.0,West,8.1,-,N/A,,Clear,260,2013-08-21 21:55:00
3:55 PM,73.9,57.9,57,29.91,10.0,West,10.4,-,N/A,,Clear,260,2013-08-21 22:55:00
4:55 PM,73.9,57.0,55,29.89,10.0,West,8.1,-,N/A,,Clear,270,2013-08-21 23:55:00
5:55 PM,72.0,55.0,55,29.88,10.0,WSW,8.1,-,N/A,,Clear,240,2013-08-22 00:55:00
6:55 PM,69.1,54.0,58,29.89,10.0,West,9.2,-,N/A,,Clear,270,2013-08-22 01:55:00
7:55 PM,66.0,55.9,70,29.91,10.0,WNW,3.5,-,N/A,,Clear,290,2013-08-22 02:55:00
8:55 PM,66.0,57.0,73,29.92,10.0,SW,3.5,-,N/A,,Clear,230,2013-08-22 03:55:00
9:55 PM,64.9,57.9,78,29.93,10.0,Calm,Calm,-,N/A,,Clear,0,2013-08-22 04:55:00
10:55 PM,64.0,57.9,80,29.94,10.0,Calm,Calm,-,N/A,,Clear,0,2013-08-22 05:55:00
11:55 PM,63.0,57.0,81,29.94,10.0,SE,3.5,-,N/A,,Clear,130,2013-08-22 06:55:00